sensor_id;sensor_type;location;lat;lon;timestamp;P1;durP1;ratioP1;P2;durP2;ratioP2
17796;SDS011;55596;53.554;9.916;2023-08-07T00:02:26;5.10;;;1.97;;
17796;SDS011;55596;53.554;9.916;2023-08-07T00:04:53;3.93;;;2.10;;
17796;SDS011;55596;53.554;9.916;2023-08-07T00:07:20;4.03;;;1.90;;
17796;SDS011;55596;53.554;9.916;2023-08-07T00:09:49;2.87;;;2.00;;
17796;SDS011;55596;53.554;9.916;2023-08-07T00:12:18;3.97;;;2.37;;
17796;SDS011;55596;53.554;9.916;2023-08-07T00:14:46;4.20;;;2.03;;
17796;SDS011;55596;53.554;9.916;2023-08-07T00:17:13;3.70;;;2.10;;
17796;SDS011;55596;53.554;9.916;2023-08-07T00:19:41;4.63;;;1.93;;
17796;SDS011;55596;53.554;9.916;2023-08-07T00:22:10;2.53;;;1.87;;
17796;SDS011;55596;53.554;9.916;2023-08-07T00:24:37;2.47;;;1.90;;
17796;SDS011;55596;53.554;9.916;2023-08-07T00:27:05;5.27;;;2.10;;
17796;SDS011;55596;53.554;9.916;2023-08-07T00:29:36;4.77;;;2.30;;
17796;SDS011;55596;53.554;9.916;2023-08-07T00:32:03;2.93;;;2.10;;
17796;SDS011;55596;53.554;9.916;2023-08-07T00:34:31;4.37;;;2.30;;
17796;SDS011;55596;53.554;9.916;2023-08-07T00:36:58;4.60;;;2.23;;
17796;SDS011;55596;53.554;9.916;2023-08-07T00:39:25;4.70;;;2.23;;
17796;SDS011;55596;53.554;9.916;2023-08-07T00:41:52;5.53;;;2.10;;
17796;SDS011;55596;53.554;9.916;2023-08-07T00:44:19;4.23;;;2.13;;
17796;SDS011;55596;53.554;9.916;2023-08-07T00:46:49;4.90;;;2.37;;
17796;SDS011;55596;53.554;9.916;2023-08-07T00:49:17;2.50;;;2.07;;
17796;SDS011;55596;53.554;9.916;2023-08-07T00:51:44;3.33;;;2.10;;
17796;SDS011;55596;53.554;9.916;2023-08-07T00:54:14;2.70;;;1.73;;
17796;SDS011;55596;53.554;9.916;2023-08-07T00:56:42;3.10;;;1.80;;
17796;SDS011;55596;53.554;9.916;2023-08-07T00:59:09;7.07;;;2.10;;
17796;SDS011;55596;53.554;9.916;2023-08-07T01:01:36;4.43;;;2.17;;
17796;SDS011;55596;53.554;9.916;2023-08-07T01:04:05;8.97;;;2.07;;
17796;SDS011;55596;53.554;9.916;2023-08-07T01:06:33;4.67;;;1.77;;
17796;SDS011;55596;53.554;9.916;2023-08-07T01:09:00;4.90;;;1.80;;
17796;SDS011;55596;53.554;9.916;2023-08-07T01:11:29;4.73;;;1.77;;
17796;SDS011;55596;53.554;9.916;2023-08-07T01:14:00;3.83;;;2.00;;
17796;SDS011;55596;53.554;9.916;2023-08-07T01:16:31;4.60;;;2.03;;
17796;SDS011;55596;53.554;9.916;2023-08-07T01:19:00;8.27;;;2.40;;
17796;SDS011;55596;53.554;9.916;2023-08-07T01:21:29;4.73;;;1.97;;
17796;SDS011;55596;53.554;9.916;2023-08-07T01:24:00;5.90;;;2.20;;
17796;SDS011;55596;53.554;9.916;2023-08-07T01:26:27;3.33;;;2.17;;
17796;SDS011;55596;53.554;9.916;2023-08-07T01:28:57;5.47;;;1.90;;
17796;SDS011;55596;53.554;9.916;2023-08-07T01:31:25;5.77;;;2.30;;
17796;SDS011;55596;53.554;9.916;2023-08-07T01:33:57;4.63;;;2.20;;
17796;SDS011;55596;53.554;9.916;2023-08-07T01:36:28;4.87;;;2.00;;
17796;SDS011;55596;53.554;9.916;2023-08-07T01:38:56;4.40;;;1.93;;
17796;SDS011;55596;53.554;9.916;2023-08-07T01:41:26;5.50;;;2.00;;
17796;SDS011;55596;53.554;9.916;2023-08-07T01:43:54;5.43;;;2.10;;
17796;SDS011;55596;53.554;9.916;2023-08-07T01:46:21;4.63;;;1.90;;
17796;SDS011;55596;53.554;9.916;2023-08-07T01:48:48;4.67;;;2.37;;
17796;SDS011;55596;53.554;9.916;2023-08-07T01:51:15;2.73;;;1.83;;
17796;SDS011;55596;53.554;9.916;2023-08-07T01:53:42;3.80;;;1.93;;
17796;SDS011;55596;53.554;9.916;2023-08-07T01:56:10;3.67;;;2.00;;
17796;SDS011;55596;53.554;9.916;2023-08-07T01:58:38;4.90;;;2.20;;
17796;SDS011;55596;53.554;9.916;2023-08-07T02:01:06;3.23;;;1.90;;
17796;SDS011;55596;53.554;9.916;2023-08-07T02:03:33;4.20;;;2.20;;
17796;SDS011;55596;53.554;9.916;2023-08-07T02:06:01;2.30;;;1.80;;
17796;SDS011;55596;53.554;9.916;2023-08-07T02:08:28;4.13;;;1.73;;
17796;SDS011;55596;53.554;9.916;2023-08-07T02:10:55;6.93;;;2.27;;
17796;SDS011;55596;53.554;9.916;2023-08-07T02:13:22;5.27;;;2.13;;
17796;SDS011;55596;53.554;9.916;2023-08-07T02:15:51;9.33;;;2.20;;
17796;SDS011;55596;53.554;9.916;2023-08-07T02:18:23;3.63;;;1.83;;
17796;SDS011;55596;53.554;9.916;2023-08-07T02:20:50;5.30;;;2.03;;
17796;SDS011;55596;53.554;9.916;2023-08-07T02:23:17;5.93;;;1.80;;
17796;SDS011;55596;53.554;9.916;2023-08-07T02:25:44;6.07;;;1.90;;
17796;SDS011;55596;53.554;9.916;2023-08-07T02:28:12;6.83;;;1.60;;
17796;SDS011;55596;53.554;9.916;2023-08-07T02:30:39;2.27;;;2.07;;
17796;SDS011;55596;53.554;9.916;2023-08-07T02:33:07;2.97;;;1.87;;
17796;SDS011;55596;53.554;9.916;2023-08-07T02:35:35;2.73;;;1.80;;
17796;SDS011;55596;53.554;9.916;2023-08-07T02:38:02;3.77;;;1.60;;
17796;SDS011;55596;53.554;9.916;2023-08-07T02:40:29;6.13;;;1.60;;
17796;SDS011;55596;53.554;9.916;2023-08-07T02:42:56;3.37;;;1.90;;
17796;SDS011;55596;53.554;9.916;2023-08-07T02:45:23;3.57;;;1.60;;
17796;SDS011;55596;53.554;9.916;2023-08-07T02:47:50;4.57;;;2.10;;
17796;SDS011;55596;53.554;9.916;2023-08-07T02:50:19;5.00;;;2.13;;
17796;SDS011;55596;53.554;9.916;2023-08-07T02:52:46;3.23;;;1.70;;
17796;SDS011;55596;53.554;9.916;2023-08-07T02:55:13;4.80;;;1.70;;
17796;SDS011;55596;53.554;9.916;2023-08-07T02:57:40;5.53;;;1.93;;
17796;SDS011;55596;53.554;9.916;2023-08-07T03:00:08;3.10;;;1.73;;
17796;SDS011;55596;53.554;9.916;2023-08-07T03:02:36;3.00;;;1.60;;
17796;SDS011;55596;53.554;9.916;2023-08-07T03:05:03;3.87;;;1.60;;
17796;SDS011;55596;53.554;9.916;2023-08-07T03:07:32;5.70;;;1.57;;
17796;SDS011;55596;53.554;9.916;2023-08-07T03:09:59;4.03;;;1.60;;
17796;SDS011;55596;53.554;9.916;2023-08-07T03:12:26;5.50;;;1.50;;
17796;SDS011;55596;53.554;9.916;2023-08-07T03:14:53;3.33;;;1.73;;
17796;SDS011;55596;53.554;9.916;2023-08-07T03:17:21;3.60;;;1.63;;
17796;SDS011;55596;53.554;9.916;2023-08-07T03:19:48;3.47;;;1.80;;
17796;SDS011;55596;53.554;9.916;2023-08-07T03:22:15;3.67;;;1.83;;
17796;SDS011;55596;53.554;9.916;2023-08-07T03:24:47;6.20;;;2.23;;
17796;SDS011;55596;53.554;9.916;2023-08-07T03:27:14;3.07;;;1.70;;
17796;SDS011;55596;53.554;9.916;2023-08-07T03:29:41;4.10;;;1.67;;
17796;SDS011;55596;53.554;9.916;2023-08-07T03:32:08;6.20;;;1.70;;
17796;SDS011;55596;53.554;9.916;2023-08-07T03:34:36;3.53;;;1.70;;
17796;SDS011;55596;53.554;9.916;2023-08-07T03:37:03;5.43;;;1.93;;
17796;SDS011;55596;53.554;9.916;2023-08-07T03:39:30;2.73;;;1.60;;
17796;SDS011;55596;53.554;9.916;2023-08-07T03:41:59;2.87;;;1.57;;
17796;SDS011;55596;53.554;9.916;2023-08-07T03:44:26;6.70;;;1.93;;
17796;SDS011;55596;53.554;9.916;2023-08-07T03:46:53;7.13;;;2.10;;
17796;SDS011;55596;53.554;9.916;2023-08-07T03:49:21;5.53;;;1.87;;
17796;SDS011;55596;53.554;9.916;2023-08-07T03:51:48;7.70;;;1.90;;
17796;SDS011;55596;53.554;9.916;2023-08-07T03:54:16;4.90;;;2.00;;
17796;SDS011;55596;53.554;9.916;2023-08-07T03:56:43;6.43;;;2.20;;
17796;SDS011;55596;53.554;9.916;2023-08-07T03:59:13;5.37;;;2.10;;
17796;SDS011;55596;53.554;9.916;2023-08-07T04:01:40;6.20;;;2.00;;
17796;SDS011;55596;53.554;9.916;2023-08-07T04:04:07;6.10;;;1.93;;
17796;SDS011;55596;53.554;9.916;2023-08-07T04:06:34;4.37;;;1.80;;
17796;SDS011;55596;53.554;9.916;2023-08-07T04:09:02;5.17;;;1.90;;
17796;SDS011;55596;53.554;9.916;2023-08-07T04:11:29;5.87;;;2.10;;
17796;SDS011;55596;53.554;9.916;2023-08-07T04:13:58;3.53;;;2.00;;
17796;SDS011;55596;53.554;9.916;2023-08-07T04:16:27;6.23;;;2.30;;
17796;SDS011;55596;53.554;9.916;2023-08-07T04:18:54;7.30;;;2.20;;
17796;SDS011;55596;53.554;9.916;2023-08-07T04:21:21;4.47;;;2.17;;
17796;SDS011;55596;53.554;9.916;2023-08-07T04:23:48;5.33;;;2.30;;
17796;SDS011;55596;53.554;9.916;2023-08-07T04:26:15;6.07;;;2.20;;
17796;SDS011;55596;53.554;9.916;2023-08-07T04:28:42;4.53;;;2.27;;
17796;SDS011;55596;53.554;9.916;2023-08-07T04:31:10;8.70;;;2.53;;
17796;SDS011;55596;53.554;9.916;2023-08-07T04:33:39;4.53;;;2.33;;
17796;SDS011;55596;53.554;9.916;2023-08-07T04:36:06;9.60;;;2.30;;
17796;SDS011;55596;53.554;9.916;2023-08-07T04:38:33;5.87;;;2.23;;
17796;SDS011;55596;53.554;9.916;2023-08-07T04:41:00;5.77;;;2.90;;
17796;SDS011;55596;53.554;9.916;2023-08-07T04:43:28;4.80;;;2.10;;
17796;SDS011;55596;53.554;9.916;2023-08-07T04:45:56;6.40;;;2.20;;
17796;SDS011;55596;53.554;9.916;2023-08-07T04:48:23;5.10;;;1.87;;
17796;SDS011;55596;53.554;9.916;2023-08-07T04:50:52;5.70;;;2.50;;
17796;SDS011;55596;53.554;9.916;2023-08-07T04:53:19;5.67;;;2.50;;
17796;SDS011;55596;53.554;9.916;2023-08-07T04:55:46;5.27;;;2.30;;
17796;SDS011;55596;53.554;9.916;2023-08-07T04:58:13;8.80;;;2.60;;
17796;SDS011;55596;53.554;9.916;2023-08-07T05:00:41;6.33;;;2.10;;
17796;SDS011;55596;53.554;9.916;2023-08-07T05:03:08;5.03;;;2.27;;
17796;SDS011;55596;53.554;9.916;2023-08-07T05:05:38;9.20;;;2.43;;
17796;SDS011;55596;53.554;9.916;2023-08-07T05:08:08;7.67;;;2.40;;
17796;SDS011;55596;53.554;9.916;2023-08-07T05:10:35;5.57;;;2.37;;
17796;SDS011;55596;53.554;9.916;2023-08-07T05:13:02;11.13;;;2.70;;
17796;SDS011;55596;53.554;9.916;2023-08-07T05:15:29;6.13;;;2.40;;
17796;SDS011;55596;53.554;9.916;2023-08-07T05:17:57;8.13;;;2.10;;
17796;SDS011;55596;53.554;9.916;2023-08-07T05:20:24;6.37;;;2.53;;
17796;SDS011;55596;53.554;9.916;2023-08-07T05:22:52;7.40;;;2.30;;
17796;SDS011;55596;53.554;9.916;2023-08-07T05:25:20;7.47;;;2.07;;
17796;SDS011;55596;53.554;9.916;2023-08-07T05:27:47;6.97;;;2.40;;
17796;SDS011;55596;53.554;9.916;2023-08-07T05:30:15;8.33;;;2.60;;
17796;SDS011;55596;53.554;9.916;2023-08-07T05:32:42;5.03;;;2.23;;
17796;SDS011;55596;53.554;9.916;2023-08-07T05:35:09;10.03;;;2.63;;
17796;SDS011;55596;53.554;9.916;2023-08-07T05:37:36;10.53;;;2.53;;
17796;SDS011;55596;53.554;9.916;2023-08-07T05:40:04;7.60;;;2.07;;
17796;SDS011;55596;53.554;9.916;2023-08-07T05:42:33;12.00;;;2.47;;
17796;SDS011;55596;53.554;9.916;2023-08-07T05:45:00;6.60;;;2.10;;
17796;SDS011;55596;53.554;9.916;2023-08-07T05:47:28;5.83;;;2.27;;
17796;SDS011;55596;53.554;9.916;2023-08-07T05:49:55;10.30;;;2.63;;
17796;SDS011;55596;53.554;9.916;2023-08-07T05:52:22;9.57;;;3.50;;
17796;SDS011;55596;53.554;9.916;2023-08-07T05:54:49;10.67;;;3.20;;
17796;SDS011;55596;53.554;9.916;2023-08-07T05:57:17;19.90;;;2.80;;
17796;SDS011;55596;53.554;9.916;2023-08-07T05:59:46;11.67;;;2.60;;
17796;SDS011;55596;53.554;9.916;2023-08-07T06:02:13;10.33;;;2.67;;
17796;SDS011;55596;53.554;9.916;2023-08-07T06:04:40;9.47;;;2.67;;
17796;SDS011;55596;53.554;9.916;2023-08-07T06:07:07;15.23;;;2.70;;
17796;SDS011;55596;53.554;9.916;2023-08-07T06:09:35;10.23;;;2.30;;
17796;SDS011;55596;53.554;9.916;2023-08-07T06:12:03;9.03;;;2.30;;
17796;SDS011;55596;53.554;9.916;2023-08-07T06:14:30;10.67;;;2.60;;
17796;SDS011;55596;53.554;9.916;2023-08-07T06:16:58;8.13;;;2.03;;
17796;SDS011;55596;53.554;9.916;2023-08-07T06:19:27;14.50;;;2.70;;
17796;SDS011;55596;53.554;9.916;2023-08-07T06:21:54;13.30;;;2.70;;
17796;SDS011;55596;53.554;9.916;2023-08-07T06:24:21;14.13;;;2.57;;
17796;SDS011;55596;53.554;9.916;2023-08-07T06:26:50;11.63;;;2.50;;
17796;SDS011;55596;53.554;9.916;2023-08-07T06:29:17;12.83;;;2.77;;
17796;SDS011;55596;53.554;9.916;2023-08-07T06:31:44;19.03;;;3.37;;
17796;SDS011;55596;53.554;9.916;2023-08-07T06:34:13;15.10;;;2.87;;
17796;SDS011;55596;53.554;9.916;2023-08-07T06:36:40;9.53;;;2.47;;
17796;SDS011;55596;53.554;9.916;2023-08-07T06:39:07;9.73;;;2.57;;
17796;SDS011;55596;53.554;9.916;2023-08-07T06:41:35;12.37;;;3.00;;
17796;SDS011;55596;53.554;9.916;2023-08-07T06:44:02;17.17;;;3.10;;
17796;SDS011;55596;53.554;9.916;2023-08-07T06:46:30;18.60;;;3.43;;
17796;SDS011;55596;53.554;9.916;2023-08-07T06:48:58;10.27;;;2.70;;
17796;SDS011;55596;53.554;9.916;2023-08-07T06:51:26;10.67;;;2.87;;
17796;SDS011;55596;53.554;9.916;2023-08-07T06:53:53;12.40;;;3.43;;
17796;SDS011;55596;53.554;9.916;2023-08-07T06:56:21;13.87;;;3.33;;
17796;SDS011;55596;53.554;9.916;2023-08-07T06:58:48;14.27;;;3.37;;
17796;SDS011;55596;53.554;9.916;2023-08-07T07:01:15;14.13;;;3.40;;
17796;SDS011;55596;53.554;9.916;2023-08-07T07:03:43;14.07;;;3.33;;
17796;SDS011;55596;53.554;9.916;2023-08-07T07:06:12;14.73;;;3.50;;
17796;SDS011;55596;53.554;9.916;2023-08-07T07:08:40;16.97;;;3.87;;
17796;SDS011;55596;53.554;9.916;2023-08-07T07:11:07;14.97;;;4.07;;
17796;SDS011;55596;53.554;9.916;2023-08-07T07:13:35;22.67;;;4.13;;
17796;SDS011;55596;53.554;9.916;2023-08-07T07:16:02;16.23;;;4.07;;
17796;SDS011;55596;53.554;9.916;2023-08-07T07:18:29;15.37;;;4.50;;
17796;SDS011;55596;53.554;9.916;2023-08-07T07:20:56;21.97;;;5.30;;
17796;SDS011;55596;53.554;9.916;2023-08-07T07:23:25;20.77;;;4.23;;
17796;SDS011;55596;53.554;9.916;2023-08-07T07:25:53;20.50;;;4.27;;
17796;SDS011;55596;53.554;9.916;2023-08-07T07:28:20;15.53;;;4.03;;
17796;SDS011;55596;53.554;9.916;2023-08-07T07:30:49;15.00;;;3.60;;
17796;SDS011;55596;53.554;9.916;2023-08-07T07:33:16;14.13;;;4.47;;
17796;SDS011;55596;53.554;9.916;2023-08-07T07:35:43;11.43;;;3.80;;
17796;SDS011;55596;53.554;9.916;2023-08-07T07:38:10;22.40;;;4.30;;
17796;SDS011;55596;53.554;9.916;2023-08-07T07:40:38;16.40;;;4.30;;
17796;SDS011;55596;53.554;9.916;2023-08-07T07:43:06;10.63;;;3.37;;
17796;SDS011;55596;53.554;9.916;2023-08-07T07:45:34;10.07;;;3.13;;
17796;SDS011;55596;53.554;9.916;2023-08-07T07:48:01;19.53;;;3.70;;
17796;SDS011;55596;53.554;9.916;2023-08-07T07:50:28;14.07;;;3.67;;
17796;SDS011;55596;53.554;9.916;2023-08-07T07:52:56;12.43;;;3.23;;
17796;SDS011;55596;53.554;9.916;2023-08-07T07:55:24;15.23;;;3.63;;
17796;SDS011;55596;53.554;9.916;2023-08-07T07:57:51;12.13;;;3.37;;
17796;SDS011;55596;53.554;9.916;2023-08-07T08:00:20;14.00;;;3.50;;
17796;SDS011;55596;53.554;9.916;2023-08-07T08:02:51;17.00;;;4.13;;
17796;SDS011;55596;53.554;9.916;2023-08-07T08:05:19;17.00;;;3.23;;
17796;SDS011;55596;53.554;9.916;2023-08-07T08:07:46;24.87;;;3.80;;
17796;SDS011;55596;53.554;9.916;2023-08-07T08:10:13;14.93;;;3.47;;
17796;SDS011;55596;53.554;9.916;2023-08-07T08:12:41;14.17;;;3.67;;
17796;SDS011;55596;53.554;9.916;2023-08-07T08:15:08;17.50;;;4.70;;
17796;SDS011;55596;53.554;9.916;2023-08-07T08:17:37;16.90;;;4.07;;
17796;SDS011;55596;53.554;9.916;2023-08-07T08:20:05;14.70;;;4.50;;
17796;SDS011;55596;53.554;9.916;2023-08-07T08:22:32;19.33;;;5.10;;
17796;SDS011;55596;53.554;9.916;2023-08-07T08:25:00;13.33;;;3.83;;
17796;SDS011;55596;53.554;9.916;2023-08-07T08:27:27;21.13;;;4.67;;
17796;SDS011;55596;53.554;9.916;2023-08-07T08:29:54;18.03;;;4.20;;
17796;SDS011;55596;53.554;9.916;2023-08-07T08:32:21;16.77;;;4.10;;
17796;SDS011;55596;53.554;9.916;2023-08-07T08:34:51;15.73;;;4.47;;
17796;SDS011;55596;53.554;9.916;2023-08-07T08:37:18;20.70;;;4.27;;
17796;SDS011;55596;53.554;9.916;2023-08-07T08:39:45;16.20;;;3.90;;
17796;SDS011;55596;53.554;9.916;2023-08-07T08:42:12;22.50;;;4.70;;
17796;SDS011;55596;53.554;9.916;2023-08-07T08:44:40;18.07;;;5.00;;
17796;SDS011;55596;53.554;9.916;2023-08-07T08:47:07;22.53;;;4.97;;
17796;SDS011;55596;53.554;9.916;2023-08-07T08:49:36;21.13;;;4.90;;
17796;SDS011;55596;53.554;9.916;2023-08-07T08:52:06;16.77;;;4.60;;
17796;SDS011;55596;53.554;9.916;2023-08-07T08:54:34;19.40;;;4.50;;
17796;SDS011;55596;53.554;9.916;2023-08-07T08:57:01;15.07;;;4.00;;
17796;SDS011;55596;53.554;9.916;2023-08-07T08:59:29;13.27;;;3.53;;
17796;SDS011;55596;53.554;9.916;2023-08-07T09:01:56;15.07;;;3.60;;
17796;SDS011;55596;53.554;9.916;2023-08-07T09:04:23;11.67;;;3.50;;
17796;SDS011;55596;53.554;9.916;2023-08-07T09:06:50;16.93;;;4.10;;
17796;SDS011;55596;53.554;9.916;2023-08-07T09:09:19;15.03;;;3.20;;
17796;SDS011;55596;53.554;9.916;2023-08-07T09:11:48;12.40;;;3.63;;
17796;SDS011;55596;53.554;9.916;2023-08-07T09:14:17;11.77;;;3.53;;
17796;SDS011;55596;53.554;9.916;2023-08-07T09:16:47;11.17;;;3.23;;
17796;SDS011;55596;53.554;9.916;2023-08-07T09:19:15;19.50;;;4.10;;
17796;SDS011;55596;53.554;9.916;2023-08-07T09:21:42;18.73;;;4.03;;
17796;SDS011;55596;53.554;9.916;2023-08-07T09:24:09;17.57;;;3.50;;
17796;SDS011;55596;53.554;9.916;2023-08-07T09:26:38;9.93;;;3.20;;
17796;SDS011;55596;53.554;9.916;2023-08-07T09:29:05;22.27;;;3.43;;
17796;SDS011;55596;53.554;9.916;2023-08-07T09:31:35;12.10;;;3.20;;
17796;SDS011;55596;53.554;9.916;2023-08-07T09:34:03;13.50;;;3.10;;
17796;SDS011;55596;53.554;9.916;2023-08-07T09:36:31;12.43;;;3.07;;
17796;SDS011;55596;53.554;9.916;2023-08-07T09:39:00;10.23;;;3.30;;
17796;SDS011;55596;53.554;9.916;2023-08-07T09:41:28;11.60;;;2.97;;
17796;SDS011;55596;53.554;9.916;2023-08-07T09:43:57;11.83;;;3.23;;
17796;SDS011;55596;53.554;9.916;2023-08-07T09:46:25;14.13;;;3.03;;
17796;SDS011;55596;53.554;9.916;2023-08-07T09:48:52;10.60;;;3.30;;
17796;SDS011;55596;53.554;9.916;2023-08-07T09:51:24;11.10;;;3.50;;
17796;SDS011;55596;53.554;9.916;2023-08-07T09:53:51;9.80;;;3.07;;
17796;SDS011;55596;53.554;9.916;2023-08-07T09:56:18;13.33;;;2.97;;
17796;SDS011;55596;53.554;9.916;2023-08-07T09:58:48;16.83;;;3.30;;
17796;SDS011;55596;53.554;9.916;2023-08-07T10:01:17;17.37;;;3.70;;
17796;SDS011;55596;53.554;9.916;2023-08-07T10:03:44;7.93;;;2.37;;
17796;SDS011;55596;53.554;9.916;2023-08-07T10:06:13;10.60;;;3.00;;
17796;SDS011;55596;53.554;9.916;2023-08-07T10:08:40;17.23;;;3.00;;
17796;SDS011;55596;53.554;9.916;2023-08-07T10:11:08;9.20;;;3.00;;
17796;SDS011;55596;53.554;9.916;2023-08-07T10:13:36;9.37;;;2.80;;
17796;SDS011;55596;53.554;9.916;2023-08-07T10:16:04;13.17;;;3.47;;
17796;SDS011;55596;53.554;9.916;2023-08-07T10:18:32;11.33;;;3.13;;
17796;SDS011;55596;53.554;9.916;2023-08-07T10:21:00;13.77;;;3.22;;
17796;SDS011;55596;53.554;9.916;2023-08-07T10:23:28;11.70;;;3.10;;
17796;SDS011;55596;53.554;9.916;2023-08-07T10:25:55;10.02;;;2.95;;
17796;SDS011;55596;53.554;9.916;2023-08-07T10:28:23;8.27;;;2.42;;
17796;SDS011;55596;53.554;9.916;2023-08-07T10:30:51;13.13;;;2.80;;
17796;SDS011;55596;53.554;9.916;2023-08-07T10:33:18;13.07;;;2.85;;
17796;SDS011;55596;53.554;9.916;2023-08-07T10:35:47;13.07;;;2.23;;
17796;SDS011;55596;53.554;9.916;2023-08-07T10:38:16;12.67;;;2.97;;
17796;SDS011;55596;53.554;9.916;2023-08-07T10:41:01;8.73;;;2.50;;
17796;SDS011;55596;53.554;9.916;2023-08-07T10:43:28;10.47;;;3.07;;
17796;SDS011;55596;53.554;9.916;2023-08-07T10:46:00;8.30;;;2.80;;
17796;SDS011;55596;53.554;9.916;2023-08-07T10:48:29;9.97;;;3.17;;
17796;SDS011;55596;53.554;9.916;2023-08-07T10:50:58;11.57;;;3.30;;
17796;SDS011;55596;53.554;9.916;2023-08-07T10:53:30;10.07;;;2.80;;
17796;SDS011;55596;53.554;9.916;2023-08-07T10:55:58;10.67;;;2.67;;
17796;SDS011;55596;53.554;9.916;2023-08-07T10:58:25;12.88;;;2.58;;
17796;SDS011;55596;53.554;9.916;2023-08-07T11:03:35;12.50;;;2.65;;
17796;SDS011;55596;53.554;9.916;2023-08-07T11:06:03;17.43;;;2.63;;
17796;SDS011;55596;53.554;9.916;2023-08-07T11:08:31;7.50;;;1.93;;
17796;SDS011;55596;53.554;9.916;2023-08-07T11:11:03;12.65;;;3.35;;
17796;SDS011;55596;53.554;9.916;2023-08-07T11:13:31;13.77;;;3.13;;
17796;SDS011;55596;53.554;9.916;2023-08-07T11:15:58;15.57;;;2.85;;
17796;SDS011;55596;53.554;9.916;2023-08-07T11:18:25;8.03;;;2.50;;
17796;SDS011;55596;53.554;9.916;2023-08-07T11:20:53;15.07;;;2.90;;
17796;SDS011;55596;53.554;9.916;2023-08-07T11:23:24;12.03;;;2.40;;
17796;SDS011;55596;53.554;9.916;2023-08-07T11:25:52;11.17;;;2.83;;
17796;SDS011;55596;53.554;9.916;2023-08-07T11:28:19;7.83;;;2.30;;
17796;SDS011;55596;53.554;9.916;2023-08-07T11:30:48;15.53;;;3.00;;
17796;SDS011;55596;53.554;9.916;2023-08-07T11:33:16;15.70;;;3.40;;
17796;SDS011;55596;53.554;9.916;2023-08-07T11:35:44;11.23;;;3.20;;
17796;SDS011;55596;53.554;9.916;2023-08-07T11:38:11;14.00;;;3.00;;
17796;SDS011;55596;53.554;9.916;2023-08-07T11:40:39;8.43;;;2.37;;
17796;SDS011;55596;53.554;9.916;2023-08-07T11:43:07;18.25;;;2.95;;
17796;SDS011;55596;53.554;9.916;2023-08-07T11:45:34;18.10;;;3.45;;
17796;SDS011;55596;53.554;9.916;2023-08-07T11:48:02;12.57;;;3.13;;
17796;SDS011;55596;53.554;9.916;2023-08-07T11:50:29;12.93;;;3.10;;
17796;SDS011;55596;53.554;9.916;2023-08-07T11:52:56;18.87;;;4.27;;
17796;SDS011;55596;53.554;9.916;2023-08-07T11:55:27;25.83;;;4.10;;
17796;SDS011;55596;53.554;9.916;2023-08-07T11:57:57;16.23;;;3.27;;
17796;SDS011;55596;53.554;9.916;2023-08-07T12:00:24;15.10;;;3.70;;
17796;SDS011;55596;53.554;9.916;2023-08-07T12:02:53;17.63;;;3.83;;
17796;SDS011;55596;53.554;9.916;2023-08-07T12:05:20;17.13;;;4.13;;
17796;SDS011;55596;53.554;9.916;2023-08-07T12:07:48;13.70;;;3.40;;
17796;SDS011;55596;53.554;9.916;2023-08-07T12:10:16;14.37;;;3.33;;
17796;SDS011;55596;53.554;9.916;2023-08-07T12:12:43;20.13;;;3.57;;
17796;SDS011;55596;53.554;9.916;2023-08-07T12:15:11;9.27;;;2.90;;
17796;SDS011;55596;53.554;9.916;2023-08-07T12:17:39;12.70;;;3.37;;
17796;SDS011;55596;53.554;9.916;2023-08-07T12:20:06;14.23;;;3.47;;
17796;SDS011;55596;53.554;9.916;2023-08-07T12:22:35;15.27;;;3.80;;
17796;SDS011;55596;53.554;9.916;2023-08-07T12:25:03;12.10;;;2.93;;
17796;SDS011;55596;53.554;9.916;2023-08-07T12:27:31;17.30;;;3.50;;
17796;SDS011;55596;53.554;9.916;2023-08-07T12:29:58;14.00;;;3.07;;
17796;SDS011;55596;53.554;9.916;2023-08-07T12:32:27;11.27;;;2.90;;
17796;SDS011;55596;53.554;9.916;2023-08-07T12:34:54;12.00;;;3.13;;
17796;SDS011;55596;53.554;9.916;2023-08-07T12:37:21;11.40;;;4.07;;
17796;SDS011;55596;53.554;9.916;2023-08-07T12:39:48;11.17;;;3.00;;
17796;SDS011;55596;53.554;9.916;2023-08-07T12:42:16;13.63;;;3.30;;
17796;SDS011;55596;53.554;9.916;2023-08-07T12:44:43;12.00;;;3.33;;
17796;SDS011;55596;53.554;9.916;2023-08-07T12:47:10;10.73;;;3.20;;
17796;SDS011;55596;53.554;9.916;2023-08-07T12:49:39;9.00;;;3.37;;
17796;SDS011;55596;53.554;9.916;2023-08-07T12:52:06;18.53;;;3.83;;
17796;SDS011;55596;53.554;9.916;2023-08-07T12:54:33;12.87;;;3.40;;
17796;SDS011;55596;53.554;9.916;2023-08-07T12:57:00;10.77;;;3.20;;
17796;SDS011;55596;53.554;9.916;2023-08-07T12:59:28;17.03;;;3.33;;
17796;SDS011;55596;53.554;9.916;2023-08-07T13:01:56;19.80;;;4.07;;
17796;SDS011;55596;53.554;9.916;2023-08-07T13:04:23;14.43;;;3.17;;
17796;SDS011;55596;53.554;9.916;2023-08-07T13:06:52;17.07;;;3.90;;
17796;SDS011;55596;53.554;9.916;2023-08-07T13:09:19;11.10;;;3.03;;
17796;SDS011;55596;53.554;9.916;2023-08-07T13:11:46;12.23;;;3.70;;
17796;SDS011;55596;53.554;9.916;2023-08-07T13:14:14;12.93;;;2.50;;
17796;SDS011;55596;53.554;9.916;2023-08-07T13:16:41;9.07;;;2.73;;
17796;SDS011;55596;53.554;9.916;2023-08-07T13:19:08;14.27;;;2.93;;
17796;SDS011;55596;53.554;9.916;2023-08-07T13:21:35;11.27;;;2.53;;
17796;SDS011;55596;53.554;9.916;2023-08-07T13:24:04;9.13;;;2.55;;
17796;SDS011;55596;53.554;9.916;2023-08-07T13:26:31;10.65;;;2.60;;
17796;SDS011;55596;53.554;9.916;2023-08-07T13:28:59;11.85;;;2.90;;
17796;SDS011;55596;53.554;9.916;2023-08-07T13:31:26;9.60;;;2.47;;
17796;SDS011;55596;53.554;9.916;2023-08-07T13:33:54;12.63;;;2.67;;
17796;SDS011;55596;53.554;9.916;2023-08-07T13:36:21;11.45;;;2.97;;
17796;SDS011;55596;53.554;9.916;2023-08-07T13:38:48;9.70;;;2.80;;
17796;SDS011;55596;53.554;9.916;2023-08-07T13:41:18;9.97;;;2.60;;
17796;SDS011;55596;53.554;9.916;2023-08-07T13:43:45;9.93;;;3.30;;
17796;SDS011;55596;53.554;9.916;2023-08-07T13:46:12;14.02;;;3.25;;
17796;SDS011;55596;53.554;9.916;2023-08-07T13:48:39;11.00;;;2.97;;
17796;SDS011;55596;53.554;9.916;2023-08-07T13:51:06;12.20;;;3.70;;
17796;SDS011;55596;53.554;9.916;2023-08-07T13:53:34;7.15;;;2.42;;
17796;SDS011;55596;53.554;9.916;2023-08-07T13:56:01;7.47;;;2.47;;
17796;SDS011;55596;53.554;9.916;2023-08-07T13:58:30;9.20;;;2.53;;
17796;SDS011;55596;53.554;9.916;2023-08-07T14:00:57;11.50;;;3.13;;
17796;SDS011;55596;53.554;9.916;2023-08-07T14:03:24;7.73;;;2.47;;
17796;SDS011;55596;53.554;9.916;2023-08-07T14:05:53;7.67;;;2.40;;
17796;SDS011;55596;53.554;9.916;2023-08-07T14:08:20;11.47;;;2.60;;
17796;SDS011;55596;53.554;9.916;2023-08-07T14:10:47;9.90;;;2.30;;
17796;SDS011;55596;53.554;9.916;2023-08-07T14:13:14;11.15;;;2.85;;
17796;SDS011;55596;53.554;9.916;2023-08-07T14:15:43;14.13;;;3.10;;
17796;SDS011;55596;53.554;9.916;2023-08-07T14:18:10;10.93;;;3.58;;
17796;SDS011;55596;53.554;9.916;2023-08-07T14:20:40;6.70;;;2.72;;
17796;SDS011;55596;53.554;9.916;2023-08-07T14:23:07;14.67;;;2.77;;
17796;SDS011;55596;53.554;9.916;2023-08-07T14:25:34;10.83;;;3.13;;
17796;SDS011;55596;53.554;9.916;2023-08-07T14:28:01;8.70;;;2.63;;
17796;SDS011;55596;53.554;9.916;2023-08-07T14:30:28;11.67;;;3.27;;
17796;SDS011;55596;53.554;9.916;2023-08-07T14:32:57;14.23;;;3.43;;
17796;SDS011;55596;53.554;9.916;2023-08-07T14:35:24;11.87;;;2.90;;
17796;SDS011;55596;53.554;9.916;2023-08-07T14:37:52;14.37;;;3.40;;
17796;SDS011;55596;53.554;9.916;2023-08-07T14:40:19;12.57;;;3.13;;
17796;SDS011;55596;53.554;9.916;2023-08-07T14:42:46;10.93;;;2.90;;
17796;SDS011;55596;53.554;9.916;2023-08-07T14:45:13;8.07;;;2.85;;
17796;SDS011;55596;53.554;9.916;2023-08-07T14:47:42;9.27;;;2.75;;